createdAt,value
2022-08-03T00:03:25.006Z,100026.56
2022-08-03T00:09:26.569Z,100018.78
2022-08-03T00:15:37.038Z,100018.78
2022-08-03T00:21:38.507Z,100016.03
2022-08-03T00:27:39.971Z,100021.78
2022-08-03T00:33:58.180Z,100026.75
2022-08-03T00:40:01.269Z,100027.00
2022-08-03T00:46:05.159Z,100020.66
2022-08-03T00:52:07.836Z,100035.81
2022-08-03T00:58:11.947Z,100031.13
2022-08-03T01:04:13.400Z,100028.59
2022-08-03T01:10:14.942Z,100025.84
2022-08-03T01:16:16.420Z,100028.03
2022-08-03T01:22:18.052Z,100034.41
2022-08-03T01:28:19.670Z,100017.25
2022-08-03T01:34:21.189Z,100022.50
2022-08-03T01:40:22.699Z,100024.72
2022-08-03T01:46:24.253Z,100030.25
2022-08-03T01:52:25.814Z,100038.19
2022-08-03T01:58:27.250Z,100034.34
2022-08-03T02:04:28.749Z,100030.19
2022-08-03T02:10:35.185Z,100035.13
2022-08-03T02:16:37.181Z,100034.28
2022-08-03T02:22:38.704Z,100033.47
2022-08-03T02:28:40.146Z,100041.16
2022-08-03T02:34:41.605Z,100035.63
2022-08-03T02:40:43.113Z,100041.16
2022-08-03T02:46:44.752Z,100037.56
2022-08-03T02:52:46.254Z,100036.47
2022-08-03T02:58:47.786Z,100036.97
2022-08-03T03:05:52.534Z,100042.75
2022-08-03T03:11:10.694Z,100042.16
2022-08-03T03:17:12.149Z,100055.97
2022-08-03T03:23:13.580Z,100051.94
2022-08-03T03:29:15.051Z,100055.03
2022-08-03T03:35:16.804Z,100059.91
2022-08-03T03:41:18.304Z,100067.09
2022-08-03T03:47:32.715Z,100071.78
2022-08-03T03:53:34.492Z,100072.63
2022-08-03T03:59:35.985Z,100079.00
2022-08-03T04:06:09.872Z,100077.66
2022-08-03T04:12:11.328Z,100081.47
2022-08-03T04:18:12.779Z,100087.78
2022-08-03T04:24:14.229Z,100085.47
2022-08-03T04:30:15.694Z,100082.47
2022-08-03T04:36:17.218Z,100078.78
2022-08-03T04:42:18.967Z,100080.03
2022-08-03T04:48:20.610Z,100090.38
2022-08-03T04:54:22.069Z,100090.50
2022-08-03T05:00:23.565Z,100097.59
2022-08-03T05:06:25.273Z,100101.66
2022-08-03T05:12:32.067Z,100107.72
2022-08-03T05:18:34.110Z,100107.28
2022-08-03T05:24:35.566Z,100119.53
2022-08-03T05:30:37.244Z,100112.09
2022-08-03T05:36:39.768Z,100115.50
2022-08-03T05:42:41.706Z,100117.47
2022-08-03T05:48:43.270Z,100120.25
2022-08-03T05:54:55.997Z,100117.50
2022-08-03T06:00:59.087Z,100132.44
2022-08-03T06:07:00.902Z,100135.22
2022-08-03T06:13:02.429Z,100128.97
2022-08-03T06:19:04.026Z,100134.34
2022-08-03T06:25:08.237Z,100128.94
2022-08-03T06:31:12.833Z,100128.97
2022-08-03T06:37:14.272Z,100132.84
2022-08-03T06:43:16.043Z,100131.72
2022-08-03T06:49:17.833Z,100133.38
2022-08-03T06:55:19.352Z,100138.41
2022-08-03T07:01:20.954Z,100140.09
2022-08-03T07:07:22.893Z,100125.41
2022-08-03T07:13:24.414Z,100131.22
2022-08-03T07:19:26.374Z,100140.09
2022-08-03T07:25:28.035Z,100128.19
2022-08-03T07:31:34.408Z,100128.97
2022-08-03T07:37:36.294Z,100135.06
2022-08-03T07:43:37.881Z,100124.53
2022-08-03T07:49:39.481Z,100128.38
2022-08-03T07:55:41.013Z,100133.13
2022-08-03T08:01:42.616Z,100138.34
2022-08-03T08:07:44.220Z,100133.88
2022-08-03T08:13:52.366Z,100144.72
2022-08-03T08:19:53.884Z,100144.22
2022-08-03T08:25:55.402Z,100142.75
2022-08-03T08:31:56.902Z,100134.44
2022-08-03T08:37:58.548Z,100134.97
2022-08-03T08:44:08.431Z,100136.91
2022-08-03T08:50:15.529Z,100128.88
2022-08-03T08:56:29.010Z,100140.22
2022-08-03T09:02:30.527Z,100135.00
2022-08-03T09:08:32.102Z,100133.56
2022-08-03T09:14:39.146Z,100146.06
2022-08-03T09:20:43.910Z,100130.03
2022-08-03T09:26:45.438Z,100144.13
2022-08-03T09:32:46.956Z,100128.53
2022-08-03T09:38:48.690Z,100121.47
2022-08-03T09:44:51.734Z,100131.66
2022-08-03T09:50:58.440Z,100131.72
2022-08-03T09:57:13.947Z,100121.44
2022-08-03T10:03:15.560Z,100126.97
2022-08-03T10:09:17.098Z,100143.34
2022-08-03T10:16:23.605Z,100123.34
2022-08-03T10:21:40.628Z,100121.72
2022-08-03T10:27:42.162Z,100122.28
2022-08-03T10:33:52.012Z,100119.81
2022-08-03T10:39:54.198Z,100123.41
2022-08-03T10:45:55.715Z,100119.25
2022-08-03T10:51:57.247Z,100106.53
2022-08-03T10:57:59.262Z,100106.25
2022-08-03T11:04:00.795Z,100118.97
2022-08-03T11:10:02.319Z,100095.69
2022-08-03T11:16:07.116Z,100103.44
2022-08-03T11:22:10.294Z,100101.47
2022-08-03T11:28:14.408Z,100090.34
2022-08-03T11:34:16.350Z,100090.63
2022-08-03T11:40:17.871Z,100082.31
2022-08-03T11:46:29.368Z,100087.28
2022-08-03T11:52:31.485Z,100082.59
2022-08-03T11:59:03.380Z,100073.16
2022-08-03T12:04:54.558Z,100070.41
2022-08-03T12:10:56.016Z,100076.25
2022-08-03T12:16:57.491Z,100068.97
2022-08-03T12:23:00.195Z,100063.72
2022-08-03T12:29:01.800Z,100060.72
2022-08-03T12:35:05.216Z,100066.19
2022-08-03T12:41:06.871Z,100048.50
2022-08-03T12:47:10.461Z,100056.81
2022-08-03T12:53:12.444Z,100044.63
2022-08-03T12:59:13.972Z,100051.28
2022-08-03T13:05:18.052Z,100051.00
2022-08-03T13:11:19.857Z,100039.06
2022-08-03T13:17:21.658Z,100038.56
2022-08-03T13:23:23.319Z,100042.44
2022-08-03T13:29:24.785Z,100046.31
2022-08-03T13:35:26.255Z,100041.63
2022-08-03T13:41:31.083Z,100043.84
2022-08-03T13:47:32.790Z,100049.09
2022-08-03T13:53:34.263Z,100048.25
2022-08-03T13:59:35.784Z,100050.50
2022-08-03T14:05:39.210Z,100056.31
2022-08-03T14:12:07.829Z,100059.66
2022-08-03T14:18:02.541Z,100046.66
2022-08-03T14:24:04.004Z,100047.75
2022-08-03T14:30:05.591Z,100056.03
2022-08-03T14:36:07.112Z,100047.41
2022-08-03T14:42:08.658Z,100057.38
2022-08-03T14:50:31.912Z,100047.94
2022-08-03T14:54:31.727Z,100041.28
2022-08-03T15:00:33.173Z,100049.03
2022-08-03T15:06:34.697Z,100052.88
2022-08-03T15:12:36.187Z,100049.31
2022-08-03T15:18:37.654Z,100044.28
2022-08-03T15:24:39.127Z,100047.28
2022-08-03T15:30:40.603Z,100039.81
2022-08-03T15:36:42.118Z,100039.19
2022-08-03T15:42:43.570Z,100043.44
2022-08-03T15:48:45.174Z,100045.66
2022-08-03T15:54:46.705Z,100037.22
2022-08-03T16:00:48.172Z,100037.22
2022-08-03T16:06:49.694Z,100042.47
2022-08-03T16:12:51.294Z,100030.25
2022-08-03T16:18:52.741Z,100036.91
2022-08-03T16:24:54.192Z,100033.31
2022-08-03T16:30:55.622Z,100042.72
2022-08-03T16:36:57.118Z,100043.25
2022-08-03T16:42:58.600Z,100044.03
2022-08-03T16:49:00.041Z,100052.06
2022-08-03T16:55:02.048Z,100058.13
2022-08-03T17:01:21.097Z,100058.41
2022-08-03T17:07:24.220Z,100059.19
2022-08-03T17:13:39.034Z,100066.91
2022-08-03T17:19:41.624Z,100070.22
2022-08-03T17:26:02.139Z,100078.22
2022-08-03T17:32:09.773Z,100085.97
2022-08-03T17:38:15.769Z,100088.69
2022-08-03T17:44:33.005Z,100097.78
2022-08-03T17:50:40.269Z,100102.19
2022-08-03T17:56:46.397Z,100106.03
2022-08-03T18:03:06.929Z,100120.97
2022-08-03T18:10:04.288Z,100129.53
2022-08-03T18:15:33.071Z,100133.66
2022-08-03T18:22:02.123Z,100143.63
2022-08-03T18:27:58.747Z,100142.22
2022-08-03T18:34:32.119Z,100155.22
2022-08-03T18:40:22.470Z,100152.59
2022-08-03T18:46:24.307Z,100154.00
2022-08-03T18:52:27.710Z,100147.09
2022-08-03T18:58:29.493Z,100157.72
2022-08-03T19:04:31.441Z,100153.22
2022-08-03T19:10:34.929Z,100166.47
2022-08-03T19:16:38.728Z,100172.09
2022-08-03T19:22:45.882Z,100168.78
2022-08-03T19:28:47.906Z,100173.25
2022-08-03T19:34:54.118Z,100164.91
2022-08-03T19:40:57.279Z,100164.69
2022-08-03T19:47:01.125Z,100163.53
2022-08-03T19:53:02.995Z,100167.09
2022-08-03T19:59:04.992Z,100173.78
2022-08-03T20:05:15.639Z,100164.94
2022-08-03T20:11:17.350Z,100163.75
2022-08-03T20:17:21.104Z,100166.78
2022-08-03T20:23:22.828Z,100164.81
2022-08-03T20:29:42.578Z,100159.28
2022-08-03T20:35:48.950Z,100162.03
2022-08-03T20:42:07.790Z,100158.13
2022-08-03T20:48:10.451Z,100160.88
2022-08-03T20:54:29.003Z,100148.94
2022-08-03T21:00:32.210Z,100151.94
2022-08-03T21:06:33.732Z,100156.06
2022-08-03T21:12:35.392Z,100158.50
2022-08-03T21:18:36.935Z,100168.97
2022-08-03T21:24:38.460Z,100166.72
2022-08-03T21:30:39.926Z,100158.41
2022-08-03T21:36:41.399Z,100164.47
2022-08-03T21:42:42.847Z,100171.13
2022-08-03T21:48:44.937Z,100164.47
2022-08-03T21:54:46.427Z,100170.00
2022-08-03T22:00:47.907Z,100171.13
2022-08-03T22:06:49.369Z,100170.53
2022-08-03T22:12:50.881Z,100170.22
2022-08-03T22:18:52.392Z,100174.06
2022-08-03T22:24:54.033Z,100177.66
2022-08-03T22:30:57.391Z,100168.53
2022-08-03T22:37:00.363Z,100165.78
2022-08-03T22:43:02.109Z,100169.91
2022-08-03T22:49:03.598Z,100162.72
2022-08-03T22:55:05.082Z,100172.09
2022-08-03T23:01:06.539Z,100165.19
2022-08-03T23:07:09.352Z,100171.00
2022-08-03T23:13:10.783Z,100153.81
2022-08-03T23:19:17.277Z,100160.19
2022-08-03T23:25:27.241Z,100165.41
2022-08-03T23:31:28.800Z,100154.94
2022-08-03T23:37:30.316Z,100155.19
2022-08-03T23:43:45.119Z,100152.16
2022-08-03T23:49:53.678Z,100147.72
2022-08-03T23:55:55.125Z,100139.41
